Time;durP1;ratioP1;P1;durP2;ratioP2;P2;SDS_P1;SDS_P2;PMS_P1;PMS_P2;Temp;Humidity;BMP_temperature;BMP_pressure;BME280_temperature;BME280_humidity;BME280_pressure;Samples;Min_cycle;Max_cycle;Signal;HPM_P1;HPM_P2
2023/02/13 00:00:58;;;;;;;74.88;25.45;;;;;;;5.96;100.00;101386.84;5036862;28;20103;-59
2023/02/13 00:03:24;;;;;;;68.10;23.65;;;;;;;5.95;100.00;101387.88;5042932;28;20021;-59
2023/02/13 00:05:49;;;;;;;69.93;24.23;;;;;;;5.99;100.00;101389.19;5038507;28;20029;-60
2023/02/13 00:08:14;;;;;;;66.05;24.98;;;;;;;6.00;100.00;101390.88;5043491;28;20018;-59
2023/02/13 00:10:40;;;;;;;75.80;25.98;;;;;;;5.97;100.00;101391.22;5037614;28;20090;-60
2023/02/13 00:13:05;;;;;;;74.10;27.08;;;;;;;5.97;100.00;101385.88;5048742;28;20033;-59
2023/02/13 00:15:31;;;;;;;73.07;25.50;;;;;;;5.95;100.00;101388.69;5040788;28;20036;-59
2023/02/13 00:17:56;;;;;;;77.00;26.35;;;;;;;5.89;100.00;101389.31;5038062;28;20033;-60
2023/02/13 00:20:22;;;;;;;70.45;26.15;;;;;;;5.92;100.00;101388.16;5052292;28;20086;-59
2023/02/13 00:22:47;;;;;;;66.38;25.98;;;;;;;5.91;100.00;101381.97;5044961;28;20021;-59
2023/02/13 00:25:13;;;;;;;74.40;26.05;;;;;;;5.94;100.00;101380.84;5036893;28;20024;-59
2023/02/13 00:27:38;;;;;;;70.90;25.00;;;;;;;5.92;100.00;101388.16;5037370;28;20164;-59
2023/02/13 00:30:04;;;;;;;74.57;26.70;;;;;;;5.92;100.00;101386.31;5038866;28;20028;-58
2023/02/13 00:32:30;;;;;;;73.35;27.10;;;;;;;5.90;100.00;101379.50;5048341;28;20029;-59
2023/02/13 00:34:56;;;;;;;77.63;27.15;;;;;;;5.87;100.00;101387.81;5042646;28;20333;-58
2023/02/13 00:37:21;;;;;;;68.97;25.63;;;;;;;5.95;100.00;101382.53;5038137;28;20147;-58
2023/02/13 00:39:46;;;;;;;70.38;26.40;;;;;;;5.90;100.00;101377.66;5046294;28;20041;-58
2023/02/13 00:42:12;;;;;;;75.03;27.02;;;;;;;5.87;100.00;101377.97;5044426;28;20345;-58
2023/02/13 00:44:37;;;;;;;70.38;26.23;;;;;;;5.87;100.00;101379.81;5041792;28;20036;-58
2023/02/13 00:47:03;;;;;;;69.90;24.40;;;;;;;5.88;100.00;101378.81;5038535;28;20048;-58
2023/02/13 00:49:28;;;;;;;61.75;24.08;;;;;;;5.91;100.00;101371.31;5041976;28;20344;-58
2023/02/13 00:51:53;;;;;;;67.80;24.52;;;;;;;5.91;100.00;101370.50;5032390;28;20018;-58
2023/02/13 00:54:19;;;;;;;69.85;26.33;;;;;;;5.99;100.00;101373.22;5038530;28;20390;-58
2023/02/13 00:56:44;;;;;;;62.58;23.20;;;;;;;5.94;100.00;101378.19;5043544;28;20494;-58
2023/02/13 00:59:10;;;;;;;76.07;25.85;;;;;;;5.94;100.00;101380.84;5042068;28;20494;-59
2023/02/13 01:01:35;;;;;;;72.10;25.08;;;;;;;5.97;100.00;101367.25;5040622;28;20423;-58
2023/02/13 01:04:00;;;;;;;70.70;25.95;;;;;;;5.82;100.00;101375.78;5037127;28;20044;-58
2023/02/13 01:06:26;;;;;;;68.32;24.27;;;;;;;5.89;100.00;101373.34;5033513;28;20032;-59
2023/02/13 01:08:51;;;;;;;74.68;25.63;;;;;;;5.86;100.00;101381.63;5039607;28;20360;-58
2023/02/13 01:11:18;;;;;;;67.43;23.98;;;;;;;5.88;100.00;101376.16;5045377;28;20041;-58
2023/02/13 01:13:44;;;;;;;73.70;28.30;;;;;;;5.88;100.00;101381.47;5041252;28;20037;-58
2023/02/13 01:16:09;;;;;;;73.63;26.05;;;;;;;5.83;100.00;101374.78;5042341;28;20029;-58
2023/02/13 01:18:34;;;;;;;78.47;26.70;;;;;;;5.79;100.00;101378.78;5050125;28;20037;-59
2023/02/13 01:21:02;;;;;;;62.40;22.70;;;;;;;5.78;100.00;101371.78;5046085;28;20024;-58
2023/02/13 01:23:31;;;;;;;76.55;25.98;;;;;;;5.79;100.00;101377.91;5030815;28;20407;-58
2023/02/13 01:25:57;;;;;;;66.05;24.73;;;;;;;5.76;100.00;101373.75;5040474;28;20025;-59
2023/02/13 01:28:22;;;;;;;77.38;28.35;;;;;;;5.74;100.00;101367.78;5047015;28;20021;-58
2023/02/13 01:30:54;;;;;;;81.75;27.08;;;;;;;5.74;100.00;101370.44;5038821;28;20028;-59
2023/02/13 01:33:24;;;;;;;79.13;26.40;;;;;;;5.73;100.00;101366.09;5042252;28;20028;-59
2023/02/13 01:35:49;;;;;;;81.18;27.42;;;;;;;5.72;100.00;101372.41;5050396;28;20031;-59
2023/02/13 01:38:15;;;;;;;84.78;27.90;;;;;;;5.71;100.00;101365.41;5052507;28;20017;-61
2023/02/13 01:40:48;;;;;;;79.50;27.60;;;;;;;5.74;100.00;101366.91;5042806;28;20341;-58
2023/02/13 01:43:14;;;;;;;74.10;24.50;;;;;;;5.71;100.00;101360.09;5041856;28;20018;-58
2023/02/13 01:45:39;;;;;;;79.22;26.45;;;;;;;5.72;100.00;101361.78;5036561;28;20423;-60
2023/02/13 01:48:07;;;;;;;86.28;27.85;;;;;;;5.77;100.00;101353.31;5037319;28;20028;-60
2023/02/13 01:50:36;;;;;;;79.78;28.38;;;;;;;5.68;100.00;101349.78;5073265;28;20437;-60
2023/02/13 01:53:06;;;;;;;79.03;26.92;;;;;;;5.71;100.00;101346.78;5044183;28;20544;-60
2023/02/13 01:55:32;;;;;;;86.90;27.83;;;;;;;5.71;100.00;101346.78;5038648;28;20029;-60
2023/02/13 01:58:01;;;;;;;86.97;27.58;;;;;;;5.67;100.00;101337.47;5046303;28;20036;-60
2023/02/13 02:00:27;;;;;;;86.10;29.97;;;;;;;5.72;100.00;101340.50;5051502;28;20025;-60
2023/02/13 02:02:56;;;;;;;84.20;28.63;;;;;;;5.71;100.00;101336.13;5036647;28;20067;-60
2023/02/13 02:05:23;;;;;;;94.47;30.45;;;;;;;5.71;100.00;101338.81;5041765;28;20442;-60
2023/02/13 02:07:48;;;;;;;79.25;27.70;;;;;;;5.74;100.00;101337.66;5037361;28;20103;-60
2023/02/13 02:10:16;;;;;;;81.28;28.33;;;;;;;5.76;100.00;101341.81;5038458;28;20036;-59
2023/02/13 02:12:55;;;;;;;89.05;29.98;;;;;;;5.75;100.00;101339.34;5041615;28;20048;-60
2023/02/13 02:15:20;;;;;;;83.30;28.00;;;;;;;5.81;100.00;101328.88;5052139;28;20044;-59
2023/02/13 02:17:45;;;;;;;78.38;26.55;;;;;;;5.76;100.00;101339.16;5055164;28;20014;-59
2023/02/13 02:20:17;;;;;;;81.88;27.77;;;;;;;5.72;100.00;101332.50;5040152;28;20112;-59
2023/02/13 02:22:51;;;;;;;82.90;29.02;;;;;;;5.72;100.00;101340.50;5032089;28;20498;-59
2023/02/13 02:25:20;;;;;;;80.88;28.60;;;;;;;5.73;100.00;101343.97;5066602;28;20025;-61
2023/02/13 02:28:14;;;;;;;73.95;26.08;;;;;;;5.73;100.00;101334.16;5041731;28;20040;-59
2023/02/13 02:30:45;;;;;;;79.80;28.02;;;;;;;5.71;100.00;101343.28;5047661;28;20033;-59
2023/02/13 02:33:35;;;;;;;72.15;25.77;;;;;;;5.70;100.00;101337.16;5040002;28;20033;-59
2023/02/13 02:36:33;;;;;;;82.70;26.48;;;;;;;5.64;100.00;101343.09;5038921;28;20056;-59
2023/02/13 02:39:26;;;;;;;78.40;25.80;;;;;;;5.60;100.00;101336.44;5018960;28;20044;-59
2023/02/13 02:42:03;;;;;;;66.95;23.88;;;;;;;5.73;100.00;101341.31;5044610;28;20112;-60
2023/02/13 02:44:32;;;;;;;68.88;25.05;;;;;;;5.65;100.00;101339.44;5044881;28;20094;-59
2023/02/13 02:50:21;;;;;;;58.05;23.38;;;;;;;5.56;100.00;101343.88;5047814;28;20044;-60
2023/02/13 02:52:51;;;;;;;55.15;21.23;;;;;;;5.53;100.00;101346.88;5046635;28;20059;-59
2023/02/13 02:55:23;;;;;;;59.13;22.10;;;;;;;5.56;100.00;101338.56;5037705;28;20036;-59
2023/02/13 03:06:26;;;;;;;54.47;21.58;;;;;;;5.39;100.00;101345.63;5043110;28;20051;-59
2023/02/13 03:14:29;;;;;;;48.40;19.48;;;;;;;5.40;100.00;101346.47;5056066;28;20067;-59
2023/02/13 03:23:19;;;;;;;51.78;20.63;;;;;;;5.31;100.00;101347.38;5031665;28;20028;-59
2023/02/13 03:26:16;;;;;;;51.08;19.55;;;;;;;5.32;100.00;101360.53;5057706;28;20052;-59
2023/02/13 03:32:00;;;;;;;53.63;18.95;;;;;;;5.44;100.00;101347.78;5048404;28;20079;-59
2023/02/13 03:37:53;;;;;;;51.20;20.50;;;;;;;5.36;100.00;101356.56;5044888;28;20040;-60
2023/02/13 03:40:07;;;;;;;50.50;20.65;;;;;;;5.29;100.00;101350.22;5025365;28;20404;-59
2023/02/13 03:42:40;;;;;;;53.33;20.05;;;;;;;5.24;100.00;101347.19;5044635;28;20059;-60
2023/02/13 03:47:55;;;;;;;49.90;19.02;;;;;;;5.22;100.00;101362.47;5029638;28;20039;-59
2023/02/13 03:50:20;;;;;;;49.70;19.98;;;;;;;5.27;100.00;101365.50;5031280;28;20021;-59
2023/02/13 03:52:46;;;;;;;52.50;20.83;;;;;;;5.25;100.00;101359.50;5030233;28;20021;-59
2023/02/13 04:00:48;;;;;;;51.92;19.90;;;;;;;5.29;100.00;101368.84;5034559;28;20114;-60
2023/02/13 04:03:25;;;;;;;53.80;20.35;;;;;;;5.28;100.00;101361.84;5074283;28;20029;-59
2023/02/13 04:05:54;;;;;;;52.70;20.20;;;;;;;5.32;100.00;101360.53;5040173;28;20556;-60
2023/02/13 04:08:20;;;;;;;55.47;21.35;;;;;;;5.29;100.00;101360.84;5035432;28;20033;-60
2023/02/13 04:11:12;;;;;;;51.28;20.45;;;;;;;5.28;100.00;101361.00;5040259;28;20403;-59
2023/02/13 04:13:56;;;;;;;50.15;20.05;;;;;;;5.29;100.00;101360.84;5039952;28;20042;-60
2023/02/13 04:16:29;;;;;;;52.47;21.17;;;;;;;5.28;100.00;101367.16;5044715;28;20487;-59
2023/02/13 04:18:55;;;;;;;54.72;21.67;;;;;;;5.26;100.00;101362.97;5054322;28;20083;-59
2023/02/13 04:21:20;;;;;;;47.00;20.20;;;;;;;5.25;100.00;101370.13;5045828;28;20372;-60
2023/02/13 04:23:45;;;;;;;52.60;20.90;;;;;;;5.20;100.00;101361.78;5038079;28;20443;-59
2023/02/13 04:26:15;;;;;;;52.15;19.67;;;;;;;5.13;100.00;101360.72;5048202;28;20022;-59
2023/02/13 04:28:40;;;;;;;53.03;21.23;;;;;;;5.09;100.00;101359.34;5028507;28;20033;-59
2023/02/13 04:31:06;;;;;;;50.83;19.88;;;;;;;4.93;100.00;101357.41;5046261;28;20024;-59
2023/02/13 04:33:31;;;;;;;51.22;21.08;;;;;;;4.96;100.00;101355.28;5041353;28;20837;-60
2023/02/13 04:35:57;;;;;;;49.90;20.83;;;;;;;5.05;100.00;101352.69;5043375;28;20491;-59
2023/02/13 04:38:22;;;;;;;60.95;26.63;;;;;;;5.00;100.00;101352.34;5049841;28;20511;-60
2023/02/13 04:40:47;;;;;;;47.88;20.30;;;;;;;4.81;100.00;101355.97;5045743;28;20483;-59
2023/02/13 04:43:13;;;;;;;59.42;21.65;;;;;;;4.71;100.00;101351.56;5039274;28;20037;-59
2023/02/13 04:45:38;;;;;;;62.88;22.83;;;;;;;4.73;100.00;101354.09;5042142;28;20024;-59
2023/02/13 04:48:04;;;;;;;52.75;20.88;;;;;;;4.73;100.00;101354.09;5041220;28;20037;-60
2023/02/13 04:50:29;;;;;;;57.80;21.48;;;;;;;4.75;100.00;101344.97;5047409;28;20031;-60
2023/02/13 04:52:58;;;;;;;64.03;23.80;;;;;;;4.74;100.00;101353.09;5047416;28;20025;-59
2023/02/13 04:55:24;;;;;;;58.35;21.33;;;;;;;4.78;100.00;101357.13;5042406;28;20115;-59
2023/02/13 04:57:53;;;;;;;57.50;21.95;;;;;;;4.74;100.00;101351.28;5040989;28;20029;-60
2023/02/13 05:00:22;;;;;;;51.30;21.83;;;;;;;4.68;100.00;101346.56;5042905;28;20359;-59
2023/02/13 05:02:48;;;;;;;50.13;20.20;;;;;;;4.58;100.00;101352.94;5045617;28;20560;-59
2023/02/13 05:05:13;;;;;;;51.70;21.15;;;;;;;4.61;100.00;101345.50;5039490;28;20040;-59
2023/02/13 05:07:39;;;;;;;58.45;22.63;;;;;;;4.48;100.00;101350.38;5036450;28;20024;-59
2023/02/13 05:10:05;;;;;;;59.42;22.33;;;;;;;4.42;100.00;101349.16;5038547;28;20063;-59
2023/02/13 05:12:31;;;;;;;62.50;22.67;;;;;;;4.45;100.00;101346.19;5047285;28;20048;-59
2023/02/13 05:14:56;;;;;;;59.40;21.17;;;;;;;4.44;100.00;101349.84;5044235;28;20036;-59
2023/02/13 05:17:22;;;;;;;65.97;21.80;;;;;;;4.41;100.00;101350.13;5040368;28;20036;-59
2023/02/13 05:19:47;;;;;;;62.55;22.35;;;;;;;4.29;100.00;101346.00;5031736;28;20263;-59
2023/02/13 05:24:56;;;;;;;60.88;23.48;;;;;;;4.25;100.00;101344.66;5041395;28;20039;-60
2023/02/13 05:27:22;;;;;;;67.00;22.30;;;;;;;4.10;100.00;101342.50;5048578;28;20025;-59
2023/02/13 05:29:47;;;;;;;63.35;22.95;;;;;;;4.08;100.00;101346.28;5042339;28;20534;-60
2023/02/13 05:32:12;;;;;;;65.95;22.40;;;;;;;4.04;100.00;101335.16;5044702;28;20033;-59
2023/02/13 05:34:38;;;;;;;68.13;24.20;;;;;;;3.87;100.00;101342.06;5041782;28;20037;-60
2023/02/13 05:37:03;;;;;;;55.65;21.45;;;;;;;3.80;100.00;101340.97;5041123;28;20036;-59
2023/02/13 05:39:29;;;;;;;62.65;22.48;;;;;;;3.70;100.00;101336.72;5039812;28;20029;-59
2023/02/13 05:41:54;;;;;;;63.58;24.73;;;;;;;3.66;100.00;101333.50;5043506;28;20082;-59
2023/02/13 05:44:19;;;;;;;72.93;23.92;;;;;;;3.63;100.00;101339.94;5042011;28;20085;-59
2023/02/13 05:46:45;;;;;;;84.57;25.52;;;;;;;3.49;100.00;101340.38;5035431;28;20320;-59
2023/02/13 05:49:11;;;;;;;76.97;27.38;;;;;;;3.64;100.00;101348.72;5041891;28;20025;-59
2023/02/13 05:51:36;;;;;;;74.80;26.83;;;;;;;3.50;100.00;101344.72;5039612;28;20025;-59
2023/02/13 05:54:02;;;;;;;75.55;26.73;;;;;;;3.45;100.00;101352.28;5038152;28;20018;-59
2023/02/13 05:56:27;;;;;;;76.60;25.30;;;;;;;3.38;100.00;101345.88;5036311;28;20464;-59
2023/02/13 05:58:53;;;;;;;77.13;25.13;;;;;;;3.32;100.00;101346.44;5062531;28;20026;-59
2023/02/13 06:01:19;;;;;;;82.65;26.45;;;;;;;3.28;100.00;101355.66;5039808;28;20459;-61
2023/02/13 06:03:45;;;;;;;73.78;25.70;;;;;;;3.22;100.00;101347.31;5044149;28;20074;-59
2023/02/13 06:06:10;;;;;;;73.40;25.17;;;;;;;3.20;100.00;101349.25;5049591;28;20510;-58
2023/02/13 06:08:35;;;;;;;83.47;26.15;;;;;;;3.03;100.00;101347.34;5033184;28;20032;-60
2023/02/13 06:11:02;;;;;;;82.68;30.15;;;;;;;3.01;100.00;101349.28;5037171;28;20040;-60
2023/02/13 06:13:27;;;;;;;95.78;29.70;;;;;;;2.99;100.00;101351.22;5043528;28;20071;-60
2023/02/13 06:15:53;;;;;;;94.13;30.67;;;;;;;2.92;100.00;101347.47;5037546;28;20025;-60
2023/02/13 06:18:18;;;;;;;105.07;32.65;;;;;;;2.91;100.00;101343.16;5033420;28;20082;-60
2023/02/13 06:20:44;;;;;;;95.75;31.35;;;;;;;2.85;100.00;101347.22;5034575;28;20039;-60
2023/02/13 06:23:09;;;;;;;100.70;29.08;;;;;;;2.80;100.00;101358.22;5040671;28;20025;-60
2023/02/13 06:25:35;;;;;;;90.72;27.60;;;;;;;2.73;100.00;101362.41;5036623;28;20017;-60
2023/02/13 06:28:01;;;;;;;101.20;30.13;;;;;;;2.78;100.00;101359.34;5031486;28;20136;-60
2023/02/13 06:30:26;;;;;;;101.30;32.17;;;;;;;2.78;100.00;101364.66;5042617;28;20334;-60
2023/02/13 06:32:52;;;;;;;100.20;32.05;;;;;;;2.80;100.00;101363.53;5035891;28;20034;-60
2023/02/13 06:35:17;;;;;;;110.20;33.35;;;;;;;2.83;100.00;101365.06;5034971;28;20082;-60
2023/02/13 06:37:43;;;;;;;89.97;28.55;;;;;;;2.69;100.00;101361.00;5050351;28;20037;-60
2023/02/13 06:40:09;;;;;;;116.68;34.58;;;;;;;2.77;100.00;101369.13;5053983;28;20494;-60
2023/02/13 06:42:35;;;;;;;109.82;30.88;;;;;;;2.72;100.00;101374.00;5041177;28;20292;-60
2023/02/13 06:45:00;;;;;;;112.68;34.50;;;;;;;2.77;100.00;101368.25;5040383;28;20029;-60
2023/02/13 06:47:26;;;;;;;112.93;30.98;;;;;;;2.71;100.00;101371.47;5048497;28;20028;-60
2023/02/13 06:49:51;;;;;;;90.40;27.80;;;;;;;2.66;100.00;101368.41;5037605;28;20722;-60
2023/02/13 06:52:16;;;;;;;105.57;31.33;;;;;;;2.67;100.00;101370.06;5040856;28;20033;-60
2023/02/13 06:54:42;;;;;;;103.63;29.70;;;;;;;2.65;100.00;101367.56;5040681;28;20032;-60
2023/02/13 06:57:07;;;;;;;111.97;31.83;;;;;;;2.77;100.00;101377.06;5041623;28;20427;-60
2023/02/13 06:59:33;;;;;;;107.40;31.45;;;;;;;2.85;100.00;101372.88;5048562;28;20113;-60
2023/02/13 07:01:58;;;;;;;104.18;31.85;;;;;;;2.86;100.00;101371.88;5043120;28;20376;-60
2023/02/13 07:04:24;;;;;;;103.43;31.60;;;;;;;2.74;100.00;101374.66;5042752;28;20024;-60
2023/02/13 07:06:49;;;;;;;100.38;29.80;;;;;;;2.64;100.00;101381.75;5040629;28;20040;-60
2023/02/13 07:09:18;;;;;;;115.22;32.15;;;;;;;2.60;100.00;101372.44;5022713;28;20033;-60
2023/02/13 07:11:43;;;;;;;102.95;31.58;;;;;;;2.69;100.00;101379.53;5039252;28;20099;-60
2023/02/13 07:14:09;;;;;;;106.70;31.17;;;;;;;2.70;100.00;101383.03;5038585;28;20025;-60
2023/02/13 07:16:34;;;;;;;94.93;27.80;;;;;;;2.67;100.00;101373.56;5042343;28;20036;-60
2023/02/13 07:18:59;;;;;;;109.35;31.23;;;;;;;2.70;100.00;101375.09;5033721;28;20091;-60
2023/02/13 07:21:25;;;;;;;105.68;31.00;;;;;;;2.85;100.00;101378.19;5046729;28;20039;-60
2023/02/13 07:23:51;;;;;;;102.35;28.60;;;;;;;2.78;100.00;101370.78;5039990;28;20036;-60
2023/02/13 07:26:16;;;;;;;106.35;32.20;;;;;;;2.95;100.00;101373.72;5043175;28;20021;-60
2023/02/13 07:28:42;;;;;;;108.07;31.30;;;;;;;3.00;100.00;101363.53;5043339;28;20037;-60
2023/02/13 07:31:07;;;;;;;106.03;29.88;;;;;;;3.58;100.00;101366.03;5044170;28;20232;-60
2023/02/13 07:33:33;;;;;;;111.70;33.90;;;;;;;3.79;100.00;101367.63;5049623;28;20029;-60
2023/02/13 07:35:58;;;;;;;91.47;29.23;;;;;;;4.15;100.00;101365.13;5046889;28;20530;-60
2023/02/13 07:38:25;;;;;;;71.80;25.65;;;;;;;4.03;100.00;101367.13;5048771;28;20078;-60
2023/02/13 07:40:51;;;;;;;76.10;25.27;;;;;;;4.15;100.00;101365.94;5044145;28;20581;-60
2023/02/13 07:43:16;;;;;;;75.30;24.33;;;;;;;4.21;100.00;101364.50;5051001;28;20017;-60
2023/02/13 07:45:42;;;;;;;83.82;28.33;;;;;;;4.37;100.00;101370.00;5039361;28;20395;-60
2023/02/13 07:48:07;;;;;;;83.70;27.33;;;;;;;4.50;100.00;101364.34;5040886;28;20037;-60
2023/02/13 07:50:32;;;;;;;91.00;27.67;;;;;;;4.68;100.00;101361.69;5045537;28;20029;-60
2023/02/13 07:52:59;;;;;;;79.63;26.30;;;;;;;4.58;100.00;101359.09;5037068;28;20025;-60
2023/02/13 07:55:27;;;;;;;74.68;25.73;;;;;;;4.86;100.00;101364.31;5035801;28;20561;-60
2023/02/13 07:57:53;;;;;;;82.65;27.00;;;;;;;4.88;100.00;101365.84;5048583;28;20028;-60
2023/02/13 08:00:19;;;;;;;77.50;26.70;;;;;;;4.70;100.00;101359.72;5073271;28;20094;-60
2023/02/13 08:02:44;;;;;;;83.22;25.92;;;;;;;5.12;100.00;101367.03;5042697;28;20025;-59
2023/02/13 08:05:10;;;;;;;70.03;24.20;;;;;;;5.16;100.00;101363.91;5044566;28;20033;-60
2023/02/13 08:07:35;;;;;;;84.20;26.65;;;;;;;5.30;100.00;101362.50;5040239;28;20036;-59
2023/02/13 08:12:45;;;;;;;82.10;25.80;;;;;;;5.66;98.59;101372.22;5042004;28;20814;-60
2023/02/13 08:15:11;;;;;;;76.50;25.55;;;;;;;5.71;97.13;101376.06;5046857;28;20025;-59
2023/02/13 08:17:36;;;;;;;74.18;25.17;;;;;;;6.11;96.31;101371.94;5042863;28;20032;-59
2023/02/13 08:20:02;;;;;;;64.35;24.48;;;;;;;6.80;93.13;101369.13;5042882;28;20025;-59
2023/02/13 08:22:27;;;;;;;89.88;29.00;;;;;;;6.69;91.13;101371.09;5043222;28;20112;-60
2023/02/13 08:24:54;;;;;;;77.93;28.25;;;;;;;7.53;92.47;101366.38;5040699;28;20025;-59
2023/02/13 08:27:19;;;;;;;65.63;24.95;;;;;;;6.82;89.75;101381.28;5038699;28;20166;-59
2023/02/13 08:29:45;;;;;;;71.82;25.80;;;;;;;7.96;87.81;101374.97;5034675;28;20026;-59
2023/02/13 08:32:10;;;;;;;68.68;24.15;;;;;;;7.32;88.07;101372.28;5042031;28;20033;-59
2023/02/13 08:34:36;;;;;;;71.47;24.77;;;;;;;8.40;85.94;101377.09;5038516;28;20029;-60
2023/02/13 08:37:01;;;;;;;66.57;24.50;;;;;;;7.68;87.54;101377.19;5039360;28;20100;-58
2023/02/13 08:39:27;;;;;;;64.25;24.98;;;;;;;8.16;83.38;101379.84;5046396;28;20024;-59
2023/02/13 08:41:52;;;;;;;67.80;25.13;;;;;;;8.65;82.02;101384.97;5044453;28;20430;-59
2023/02/13 08:44:18;;;;;;;64.97;24.83;;;;;;;9.01;80.71;101387.91;5040150;28;20085;-58
2023/02/13 08:46:43;;;;;;;62.88;22.90;;;;;;;9.09;79.06;101384.31;5044405;28;20025;-59
2023/02/13 08:49:09;;;;;;;59.08;23.17;;;;;;;9.01;79.26;101389.72;5044673;28;20021;-58
2023/02/13 08:51:36;;;;;;;66.85;23.45;;;;;;;8.70;78.79;101387.13;5030052;28;20025;-58
2023/02/13 08:54:02;;;;;;;57.35;22.75;;;;;;;8.69;81.73;101390.81;5036438;28;20036;-59
2023/02/13 08:56:27;;;;;;;55.47;23.35;;;;;;;8.83;79.72;101390.84;5042062;28;20029;-58
2023/02/13 08:58:53;;;;;;;54.45;21.02;;;;;;;7.83;83.51;101390.66;5038371;28;20009;-59
2023/02/13 09:01:19;;;;;;;60.90;24.20;;;;;;;7.73;83.48;101390.84;5045002;28;20036;-59
2023/02/13 09:03:44;;;;;;;56.78;21.95;;;;;;;8.32;82.63;101395.81;5041854;28;20037;-58
2023/02/13 09:06:10;;;;;;;55.22;20.13;;;;;;;8.63;81.00;101392.34;5043837;28;20411;-58
2023/02/13 09:08:35;;;;;;;50.50;20.70;;;;;;;7.73;80.66;101393.53;5036900;28;20455;-60
2023/02/13 09:11:02;;;;;;;51.67;21.58;;;;;;;6.86;88.16;101392.44;5044068;28;20045;-60
2023/02/13 09:13:28;;;;;;;59.95;22.08;;;;;;;7.82;85.32;101393.53;5042791;28;20047;-60
2023/02/13 09:15:56;;;;;;;49.72;20.88;;;;;;;8.92;79.43;101393.50;5042521;28;20021;-60
2023/02/13 09:18:21;;;;;;;49.30;20.38;;;;;;;8.16;79.46;101393.22;5041036;28;20028;-61
2023/02/13 09:20:46;;;;;;;52.60;21.52;;;;;;;8.89;79.39;101396.53;5040679;28;20032;-59
2023/02/13 09:23:12;;;;;;;52.70;21.00;;;;;;;9.29;76.65;101398.03;5040657;28;20025;-58
2023/02/13 09:25:37;;;;;;;48.88;20.63;;;;;;;7.65;84.43;101404.22;5037317;28;20830;-58
2023/02/13 09:28:03;;;;;;;48.30;20.27;;;;;;;7.99;83.83;101411.16;5034806;28;20029;-59
2023/02/13 09:30:29;;;;;;;49.15;20.05;;;;;;;7.38;84.00;101408.09;5039917;28;20053;-58
2023/02/13 09:32:54;;;;;;;48.17;19.38;;;;;;;6.85;88.89;101407.59;5037065;28;20040;-61
2023/02/13 09:35:20;;;;;;;52.60;20.95;;;;;;;7.40;86.53;101403.44;5036557;28;20051;-59
2023/02/13 09:37:45;;;;;;;43.20;18.80;;;;;;;7.88;84.68;101404.34;5040304;28;20582;-59
2023/02/13 09:40:23;;;;;;;47.88;17.73;;;;;;;7.73;83.80;101400.72;5033285;28;20388;-61
2023/02/13 09:42:48;;;;;;;47.83;19.40;;;;;;;8.23;83.13;101406.72;5043552;28;20118;-60
2023/02/13 09:45:14;;;;;;;45.72;18.73;;;;;;;7.98;83.45;101404.97;5038492;28;20422;-61
2023/02/13 09:47:40;;;;;;;47.78;18.33;;;;;;;8.84;80.28;101399.72;5045247;28;20119;-60
2023/02/13 09:50:08;;;;;;;33.75;16.23;;;;;;;8.32;84.70;101401.16;5037796;28;20059;-60
2023/02/13 09:52:35;;;;;;;43.58;18.73;;;;;;;8.07;82.25;101395.09;5048891;28;20025;-59
2023/02/13 09:55:01;;;;;;;47.10;20.80;;;;;;;7.39;85.48;101412.47;5051356;28;20033;-61
2023/02/13 09:57:33;;;;;;;47.30;21.83;;;;;;;7.00;89.47;101414.94;5030708;28;20476;-60
2023/02/13 10:00:10;;;;;;;42.08;19.10;;;;;;;7.32;88.67;101414.13;5040344;28;20228;-60
2023/02/13 10:02:57;;;;;;;44.38;18.15;;;;;;;7.90;86.71;101414.84;5038952;28;20107;-60
2023/02/13 10:05:39;;;;;;;45.28;18.75;;;;;;;7.21;89.26;101412.59;5041230;28;20103;-58
2023/02/13 10:08:37;;;;;;;44.75;18.85;;;;;;;7.16;90.04;101411.44;5043701;28;20439;-58
2023/02/13 10:11:30;;;;;;;44.15;18.42;;;;;;;8.14;86.53;101413.94;5035193;28;20045;-59
2023/02/13 10:14:18;;;;;;;43.40;19.10;;;;;;;8.66;81.17;101405.34;5038164;28;20384;-61
2023/02/13 10:17:03;;;;;;;41.28;18.90;;;;;;;8.25;84.91;101404.72;5037599;28;20040;-60
2023/02/13 10:19:46;;;;;;;40.35;17.80;;;;;;;10.34;76.49;101413.16;5033187;28;20033;-60
2023/02/13 10:22:22;;;;;;;42.78;18.90;;;;;;;10.28;73.64;101413.88;5036908;28;20028;-60
2023/02/13 10:24:53;;;;;;;38.00;17.75;;;;;;;8.74;80.47;101399.97;5036279;28;20037;-60
2023/02/13 10:27:24;;;;;;;45.20;18.73;;;;;;;9.37;78.93;101410.50;5040912;28;20142;-60
2023/02/13 10:30:05;;;;;;;40.75;18.02;;;;;;;10.12;75.05;101402.31;5036561;28;20037;-60
2023/02/13 10:32:34;;;;;;;42.22;18.42;;;;;;;10.74;72.92;101405.56;5038063;28;20779;-60
2023/02/13 10:35:00;;;;;;;39.30;19.23;;;;;;;11.34;70.43;101404.25;5045189;28;20025;-60
2023/02/13 10:37:26;;;;;;;42.30;19.95;;;;;;;11.41;71.24;101399.78;5044727;28;20090;-59
2023/02/13 10:39:54;;;;;;;43.00;19.85;;;;;;;11.79;69.75;101402.09;5070043;28;20044;-60
2023/02/13 10:42:21;;;;;;;39.80;19.85;;;;;;;12.04;67.49;101380.16;5043528;28;20470;-60
2023/02/13 10:45:23;;;;;;;40.58;17.80;;;;;;;11.35;68.56;101394.34;5045075;28;20116;-60
2023/02/13 10:48:22;;;;;;;35.65;18.00;;;;;;;11.27;68.56;101387.25;5038562;28;20052;-58
2023/02/13 10:51:04;;;;;;;38.70;16.47;;;;;;;11.45;68.77;101394.81;5036881;28;20022;-60
2023/02/13 10:53:55;;;;;;;39.17;18.17;;;;;;;12.07;66.92;101385.13;5023517;28;20017;-60
2023/02/13 10:56:35;;;;;;;40.65;17.38;;;;;;;11.48;67.64;101391.75;5028049;28;20024;-60
2023/02/13 10:59:25;;;;;;;36.17;17.42;;;;;;;11.70;67.99;101381.78;5041205;28;20033;-60
2023/02/13 11:02:01;;;;;;;37.55;17.35;;;;;;;11.55;68.10;101384.56;5043100;28;20116;-60
2023/02/13 11:04:27;;;;;;;32.72;16.08;;;;;;;11.89;67.24;101380.28;5043483;28;20499;-59
2023/02/13 11:07:00;;;;;;;28.25;14.95;;;;;;;9.43;74.59;101381.16;5062028;28;20032;-60
2023/02/13 11:09:26;;;;;;;35.90;15.85;;;;;;;10.34;73.02;101375.63;5031990;28;20048;-59
2023/02/13 11:11:54;;;;;;;33.53;16.77;;;;;;;9.40;75.75;101372.66;5037963;28;20033;-59
2023/02/13 11:14:20;;;;;;;32.05;16.40;;;;;;;10.37;73.77;101375.25;5054448;28;20031;-60
2023/02/13 11:16:54;;;;;;;32.13;16.35;;;;;;;9.37;76.86;101367.69;5040486;28;20143;-59
2023/02/13 11:19:23;;;;;;;34.40;15.68;;;;;;;10.56;72.53;101368.47;5045435;28;20360;-59
2023/02/13 11:21:52;;;;;;;32.40;16.02;;;;;;;10.98;70.21;101367.63;5029556;28;20510;-59
2023/02/13 11:24:22;;;;;;;33.58;15.30;;;;;;;9.29;76.36;101369.44;5044747;28;20049;-59
2023/02/13 11:27:15;;;;;;;29.27;14.73;;;;;;;9.96;74.50;101361.50;5028198;28;20029;-60
2023/02/13 11:29:57;;;;;;;29.98;14.98;;;;;;;9.86;74.99;101356.44;5044313;28;20036;-59
2023/02/13 11:32:26;;;;;;;32.50;15.07;;;;;;;10.75;71.47;101350.88;5072712;28;20263;-59
2023/02/13 11:34:53;;;;;;;28.95;14.20;;;;;;;11.17;69.09;101354.56;5041459;28;20032;-59
2023/02/13 11:37:28;;;;;;;27.67;14.30;;;;;;;10.81;72.53;101342.09;5052904;28;20037;-60
2023/02/13 11:39:58;;;;;;;29.30;14.07;;;;;;;11.10;69.20;101337.56;5038866;28;20029;-59
2023/02/13 11:42:31;;;;;;;32.05;13.13;;;;;;;11.02;70.28;101342.06;5048370;28;20470;-60
2023/02/13 11:45:20;;;;;;;27.48;13.63;;;;;;;10.09;74.08;101334.91;5039159;28;20032;-59
2023/02/13 11:47:46;;;;;;;29.75;13.98;;;;;;;10.45;72.05;101329.53;5026999;28;20112;-59
2023/02/13 11:50:24;;;;;;;28.55;12.70;;;;;;;10.29;73.01;101341.34;5048898;28;20361;-59
2023/02/13 11:53:00;;;;;;;25.10;13.55;;;;;;;10.08;73.11;101328.72;5043612;28;20025;-59
2023/02/13 11:55:30;;;;;;;29.45;12.75;;;;;;;10.66;72.44;101331.44;5041160;28;20094;-59
2023/02/13 11:58:00;;;;;;;27.55;13.60;;;;;;;10.55;71.71;101330.06;5046021;28;20036;-59
2023/02/13 12:00:38;;;;;;;27.17;13.00;;;;;;;10.59;72.51;101319.81;5042936;28;20147;-59